sensor_id;sensor_type;location;lat;lon;timestamp;P1;durP1;ratioP1;P2;durP2;ratioP2
29890;SDS011;16759;49.540;8.642;2023-02-11T00:00:07;43.08;;;22.17;;
29890;SDS011;16759;49.540;8.642;2023-02-11T00:02:33;46.50;;;22.45;;
29890;SDS011;16759;49.540;8.642;2023-02-11T00:04:59;47.88;;;22.83;;
29890;SDS011;16759;49.540;8.642;2023-02-11T00:07:30;44.78;;;21.40;;
29890;SDS011;16759;49.540;8.642;2023-02-11T00:09:56;42.90;;;20.38;;
29890;SDS011;16759;49.540;8.642;2023-02-11T00:12:24;48.33;;;22.63;;
29890;SDS011;16759;49.540;8.642;2023-02-11T00:14:50;43.58;;;22.45;;
29890;SDS011;16759;49.540;8.642;2023-02-11T00:17:15;40.70;;;21.80;;
29890;SDS011;16759;49.540;8.642;2023-02-11T00:19:41;44.55;;;21.17;;
29890;SDS011;16759;49.540;8.642;2023-02-11T00:22:06;43.83;;;21.45;;
29890;SDS011;16759;49.540;8.642;2023-02-11T00:24:32;39.13;;;19.77;;
29890;SDS011;16759;49.540;8.642;2023-02-11T00:27:00;43.03;;;20.10;;
29890;SDS011;16759;49.540;8.642;2023-02-11T00:29:26;42.08;;;20.67;;
29890;SDS011;16759;49.540;8.642;2023-02-11T00:31:52;40.55;;;21.35;;
29890;SDS011;16759;49.540;8.642;2023-02-11T00:34:17;46.47;;;21.67;;
29890;SDS011;16759;49.540;8.642;2023-02-11T00:36:43;47.72;;;21.35;;
29890;SDS011;16759;49.540;8.642;2023-02-11T00:39:08;49.30;;;22.33;;
29890;SDS011;16759;49.540;8.642;2023-02-11T00:41:34;46.00;;;21.70;;
29890;SDS011;16759;49.540;8.642;2023-02-11T00:44:00;49.53;;;21.63;;
29890;SDS011;16759;49.540;8.642;2023-02-11T00:46:26;50.30;;;22.60;;
29890;SDS011;16759;49.540;8.642;2023-02-11T00:48:54;41.55;;;21.38;;
29890;SDS011;16759;49.540;8.642;2023-02-11T00:51:22;42.83;;;19.52;;
29890;SDS011;16759;49.540;8.642;2023-02-11T00:53:49;45.97;;;23.00;;
29890;SDS011;16759;49.540;8.642;2023-02-11T00:56:17;46.45;;;21.00;;
29890;SDS011;16759;49.540;8.642;2023-02-11T00:58:42;43.60;;;21.02;;
29890;SDS011;16759;49.540;8.642;2023-02-11T01:01:08;44.20;;;21.42;;
29890;SDS011;16759;49.540;8.642;2023-02-11T01:03:33;44.67;;;20.85;;
29890;SDS011;16759;49.540;8.642;2023-02-11T01:06:01;47.90;;;21.98;;
29890;SDS011;16759;49.540;8.642;2023-02-11T01:08:27;49.15;;;23.05;;
29890;SDS011;16759;49.540;8.642;2023-02-11T01:10:59;43.17;;;20.52;;
29890;SDS011;16759;49.540;8.642;2023-02-11T01:13:27;45.45;;;20.98;;
29890;SDS011;16759;49.540;8.642;2023-02-11T01:15:56;43.22;;;21.23;;
29890;SDS011;16759;49.540;8.642;2023-02-11T01:18:22;43.60;;;21.25;;
29890;SDS011;16759;49.540;8.642;2023-02-11T01:20:49;44.40;;;21.75;;
29890;SDS011;16759;49.540;8.642;2023-02-11T01:23:18;47.42;;;21.58;;
29890;SDS011;16759;49.540;8.642;2023-02-11T01:25:43;46.17;;;22.30;;
29890;SDS011;16759;49.540;8.642;2023-02-11T01:28:16;46.10;;;21.52;;
29890;SDS011;16759;49.540;8.642;2023-02-11T01:30:45;41.95;;;20.30;;
29890;SDS011;16759;49.540;8.642;2023-02-11T01:33:11;48.92;;;22.42;;
29890;SDS011;16759;49.540;8.642;2023-02-11T01:35:37;44.22;;;22.77;;
29890;SDS011;16759;49.540;8.642;2023-02-11T01:38:04;44.55;;;21.60;;
29890;SDS011;16759;49.540;8.642;2023-02-11T01:40:45;47.78;;;21.10;;
29890;SDS011;16759;49.540;8.642;2023-02-11T01:43:12;50.42;;;22.13;;
29890;SDS011;16759;49.540;8.642;2023-02-11T01:48:12;45.33;;;23.20;;
29890;SDS011;16759;49.540;8.642;2023-02-11T01:50:42;42.40;;;21.35;;
29890;SDS011;16759;49.540;8.642;2023-02-11T01:53:10;38.90;;;19.95;;
29890;SDS011;16759;49.540;8.642;2023-02-11T01:55:56;39.95;;;20.00;;
29890;SDS011;16759;49.540;8.642;2023-02-11T01:58:41;42.95;;;20.23;;
29890;SDS011;16759;49.540;8.642;2023-02-11T02:01:12;40.75;;;19.80;;
29890;SDS011;16759;49.540;8.642;2023-02-11T02:03:41;45.78;;;21.63;;
29890;SDS011;16759;49.540;8.642;2023-02-11T02:06:11;41.63;;;20.70;;
29890;SDS011;16759;49.540;8.642;2023-02-11T02:09:02;40.42;;;19.67;;
29890;SDS011;16759;49.540;8.642;2023-02-11T08:17:11;44.85;;;21.05;;
29890;SDS011;16759;49.540;8.642;2023-02-11T08:19:37;41.55;;;21.42;;
29890;SDS011;16759;49.540;8.642;2023-02-11T08:22:03;45.15;;;23.05;;
29890;SDS011;16759;49.540;8.642;2023-02-11T08:24:29;42.17;;;21.27;;
29890;SDS011;16759;49.540;8.642;2023-02-11T08:26:54;40.38;;;20.42;;
29890;SDS011;16759;49.540;8.642;2023-02-11T08:29:22;46.55;;;23.58;;
29890;SDS011;16759;49.540;8.642;2023-02-11T08:31:48;44.45;;;21.90;;
29890;SDS011;16759;49.540;8.642;2023-02-11T08:34:15;43.67;;;23.08;;
29890;SDS011;16759;49.540;8.642;2023-02-11T08:36:46;46.75;;;24.15;;
29890;SDS011;16759;49.540;8.642;2023-02-11T08:39:16;45.50;;;22.63;;
29890;SDS011;16759;49.540;8.642;2023-02-11T08:41:43;46.63;;;23.95;;
29890;SDS011;16759;49.540;8.642;2023-02-11T08:44:09;43.83;;;23.38;;
29890;SDS011;16759;49.540;8.642;2023-02-11T08:46:35;45.63;;;22.05;;
29890;SDS011;16759;49.540;8.642;2023-02-11T08:49:00;40.47;;;21.80;;
29890;SDS011;16759;49.540;8.642;2023-02-11T08:51:27;42.95;;;22.20;;
29890;SDS011;16759;49.540;8.642;2023-02-11T08:53:55;44.40;;;22.27;;
29890;SDS011;16759;49.540;8.642;2023-02-11T08:56:24;40.35;;;21.83;;
29890;SDS011;16759;49.540;8.642;2023-02-11T08:58:50;46.60;;;22.75;;
29890;SDS011;16759;49.540;8.642;2023-02-11T09:01:26;42.13;;;20.92;;
29890;SDS011;16759;49.540;8.642;2023-02-11T09:03:53;39.95;;;21.92;;
29890;SDS011;16759;49.540;8.642;2023-02-11T09:06:19;40.30;;;22.17;;
29890;SDS011;16759;49.540;8.642;2023-02-11T09:08:49;44.83;;;22.05;;
29890;SDS011;16759;49.540;8.642;2023-02-11T09:11:18;43.30;;;21.42;;
29890;SDS011;16759;49.540;8.642;2023-02-11T09:13:45;40.70;;;21.98;;
29890;SDS011;16759;49.540;8.642;2023-02-11T09:16:19;41.13;;;22.90;;
29890;SDS011;16759;49.540;8.642;2023-02-11T09:18:46;44.17;;;23.02;;
29890;SDS011;16759;49.540;8.642;2023-02-11T09:21:15;46.42;;;22.73;;
29890;SDS011;16759;49.540;8.642;2023-02-11T09:23:42;42.40;;;21.45;;
29890;SDS011;16759;49.540;8.642;2023-02-11T09:26:28;42.67;;;21.27;;
29890;SDS011;16759;49.540;8.642;2023-02-11T09:28:58;39.80;;;21.65;;
29890;SDS011;16759;49.540;8.642;2023-02-11T09:31:25;38.55;;;21.13;;
29890;SDS011;16759;49.540;8.642;2023-02-11T09:33:53;40.45;;;21.25;;
29890;SDS011;16759;49.540;8.642;2023-02-11T09:36:21;40.10;;;21.85;;
29890;SDS011;16759;49.540;8.642;2023-02-11T09:38:49;41.08;;;21.33;;
29890;SDS011;16759;49.540;8.642;2023-02-11T09:43:46;39.50;;;21.90;;
29890;SDS011;16759;49.540;8.642;2023-02-11T09:46:13;36.67;;;21.33;;
29890;SDS011;16759;49.540;8.642;2023-02-11T09:48:42;40.97;;;21.55;;
29890;SDS011;16759;49.540;8.642;2023-02-11T09:51:18;39.45;;;21.65;;
29890;SDS011;16759;49.540;8.642;2023-02-11T09:53:50;40.85;;;22.23;;
29890;SDS011;16759;49.540;8.642;2023-02-11T09:56:21;44.65;;;21.30;;
29890;SDS011;16759;49.540;8.642;2023-02-11T09:58:48;39.42;;;23.48;;
29890;SDS011;16759;49.540;8.642;2023-02-11T10:01:29;37.75;;;20.95;;
29890;SDS011;16759;49.540;8.642;2023-02-11T10:06:48;41.10;;;21.40;;
29890;SDS011;16759;49.540;8.642;2023-02-11T10:09:32;42.35;;;22.88;;
29890;SDS011;16759;49.540;8.642;2023-02-11T10:23:00;38.78;;;20.88;;
29890;SDS011;16759;49.540;8.642;2023-02-11T10:25:37;42.55;;;21.35;;
29890;SDS011;16759;49.540;8.642;2023-02-11T10:28:23;40.92;;;21.65;;
29890;SDS011;16759;49.540;8.642;2023-02-11T10:33:26;38.50;;;20.20;;
29890;SDS011;16759;49.540;8.642;2023-02-11T10:35:58;37.50;;;21.42;;
29890;SDS011;16759;49.540;8.642;2023-02-11T10:38:27;37.03;;;21.52;;
29890;SDS011;16759;49.540;8.642;2023-02-11T10:40:52;42.20;;;22.15;;
29890;SDS011;16759;49.540;8.642;2023-02-11T10:43:18;43.33;;;22.75;;
29890;SDS011;16759;49.540;8.642;2023-02-11T10:45:52;40.60;;;22.10;;
29890;SDS011;16759;49.540;8.642;2023-02-11T10:53:40;38.30;;;21.52;;
29890;SDS011;16759;49.540;8.642;2023-02-11T10:56:06;49.50;;;22.35;;
29890;SDS011;16759;49.540;8.642;2023-02-11T11:01:36;42.22;;;23.48;;
29890;SDS011;16759;49.540;8.642;2023-02-11T11:07:40;42.08;;;22.90;;
29890;SDS011;16759;49.540;8.642;2023-02-11T11:09:51;45.67;;;21.95;;
29890;SDS011;16759;49.540;8.642;2023-02-11T11:12:25;38.85;;;21.25;;
29890;SDS011;16759;49.540;8.642;2023-02-11T11:17:45;42.47;;;22.10;;
29890;SDS011;16759;49.540;8.642;2023-02-11T11:22:46;41.10;;;23.30;;
29890;SDS011;16759;49.540;8.642;2023-02-11T11:25:24;37.80;;;21.75;;
29890;SDS011;16759;49.540;8.642;2023-02-11T11:27:52;39.38;;;21.90;;
29890;SDS011;16759;49.540;8.642;2023-02-11T11:30:20;40.25;;;22.30;;
29890;SDS011;16759;49.540;8.642;2023-02-11T11:32:49;40.17;;;21.52;;
29890;SDS011;16759;49.540;8.642;2023-02-11T11:35:22;34.42;;;20.85;;
29890;SDS011;16759;49.540;8.642;2023-02-11T11:38:00;35.72;;;21.35;;
29890;SDS011;16759;49.540;8.642;2023-02-11T11:40:31;39.35;;;21.83;;
29890;SDS011;16759;49.540;8.642;2023-02-11T11:45:42;37.92;;;21.50;;
29890;SDS011;16759;49.540;8.642;2023-02-11T11:50:52;39.28;;;22.73;;
29890;SDS011;16759;49.540;8.642;2023-02-11T11:53:34;42.58;;;20.85;;
29890;SDS011;16759;49.540;8.642;2023-02-11T11:56:31;37.65;;;22.73;;
29890;SDS011;16759;49.540;8.642;2023-02-11T11:59:01;40.25;;;22.17;;
29890;SDS011;16759;49.540;8.642;2023-02-11T12:01:47;36.50;;;20.35;;
29890;SDS011;16759;49.540;8.642;2023-02-11T12:15:36;39.30;;;21.77;;
29890;SDS011;16759;49.540;8.642;2023-02-11T12:21:12;37.65;;;22.02;;
29890;SDS011;16759;49.540;8.642;2023-02-11T12:26:46;36.13;;;21.60;;
29890;SDS011;16759;49.540;8.642;2023-02-11T12:29:26;36.80;;;21.80;;
29890;SDS011;16759;49.540;8.642;2023-02-11T12:35:11;38.15;;;20.77;;
29890;SDS011;16759;49.540;8.642;2023-02-11T12:58:55;38.75;;;21.63;;
29890;SDS011;16759;49.540;8.642;2023-02-11T13:01:45;42.00;;;21.52;;
29890;SDS011;16759;49.540;8.642;2023-02-11T13:04:19;39.85;;;21.20;;
29890;SDS011;16759;49.540;8.642;2023-02-11T13:06:54;38.75;;;21.67;;
29890;SDS011;16759;49.540;8.642;2023-02-11T13:09:31;38.03;;;21.33;;
29890;SDS011;16759;49.540;8.642;2023-02-11T13:12:02;41.13;;;22.95;;
29890;SDS011;16759;49.540;8.642;2023-02-11T13:14:51;40.70;;;21.38;;
29890;SDS011;16759;49.540;8.642;2023-02-11T13:17:21;37.72;;;21.52;;
29890;SDS011;16759;49.540;8.642;2023-02-11T13:20:00;37.38;;;21.30;;
29890;SDS011;16759;49.540;8.642;2023-02-11T13:22:37;40.97;;;22.30;;
29890;SDS011;16759;49.540;8.642;2023-02-11T13:25:27;37.95;;;21.50;;
29890;SDS011;16759;49.540;8.642;2023-02-11T13:30:44;38.72;;;22.08;;
29890;SDS011;16759;49.540;8.642;2023-02-11T13:35:42;33.92;;;20.15;;
29890;SDS011;16759;49.540;8.642;2023-02-11T13:40:42;41.28;;;22.38;;
29890;SDS011;16759;49.540;8.642;2023-02-11T13:43:21;41.53;;;23.33;;
29890;SDS011;16759;49.540;8.642;2023-02-11T13:45:49;35.88;;;20.48;;
29890;SDS011;16759;49.540;8.642;2023-02-11T13:48:23;38.10;;;21.15;;
29890;SDS011;16759;49.540;8.642;2023-02-11T13:51:01;41.05;;;21.73;;
29890;SDS011;16759;49.540;8.642;2023-02-11T13:53:44;39.05;;;22.25;;
29890;SDS011;16759;49.540;8.642;2023-02-11T13:56:39;37.38;;;19.90;;
29890;SDS011;16759;49.540;8.642;2023-02-11T14:04:36;40.33;;;20.92;;
29890;SDS011;16759;49.540;8.642;2023-02-11T14:07:42;42.10;;;20.33;;
29890;SDS011;16759;49.540;8.642;2023-02-11T14:10:58;38.35;;;20.63;;
29890;SDS011;16759;49.540;8.642;2023-02-11T14:16:16;35.85;;;19.35;;
29890;SDS011;16759;49.540;8.642;2023-02-11T14:21:15;38.60;;;19.58;;
29890;SDS011;16759;49.540;8.642;2023-02-11T14:23:41;41.75;;;19.92;;
29890;SDS011;16759;49.540;8.642;2023-02-11T14:26:14;38.63;;;20.15;;
29890;SDS011;16759;49.540;8.642;2023-02-11T14:28:46;40.33;;;20.25;;
29890;SDS011;16759;49.540;8.642;2023-02-11T14:31:25;41.40;;;20.60;;
29890;SDS011;16759;49.540;8.642;2023-02-11T14:41:55;35.20;;;19.48;;
29890;SDS011;16759;49.540;8.642;2023-02-11T14:44:22;35.53;;;19.65;;
29890;SDS011;16759;49.540;8.642;2023-02-11T14:46:50;35.38;;;20.77;;
29890;SDS011;16759;49.540;8.642;2023-02-11T14:49:25;39.83;;;21.10;;
29890;SDS011;16759;49.540;8.642;2023-02-11T14:52:07;37.60;;;20.10;;
29890;SDS011;16759;49.540;8.642;2023-02-11T14:54:41;41.80;;;21.38;;
29890;SDS011;16759;49.540;8.642;2023-02-11T14:57:12;39.70;;;19.73;;
29890;SDS011;16759;49.540;8.642;2023-02-11T15:00:02;48.20;;;20.83;;
29890;SDS011;16759;49.540;8.642;2023-02-11T15:02:32;37.65;;;19.58;;
29890;SDS011;16759;49.540;8.642;2023-02-11T15:05:13;43.00;;;19.15;;
29890;SDS011;16759;49.540;8.642;2023-02-11T15:07:42;31.75;;;17.17;;
29890;SDS011;16759;49.540;8.642;2023-02-11T15:10:25;43.70;;;20.52;;
29890;SDS011;16759;49.540;8.642;2023-02-11T15:12:58;33.83;;;18.15;;
29890;SDS011;16759;49.540;8.642;2023-02-11T15:15:26;38.05;;;19.80;;
29890;SDS011;16759;49.540;8.642;2023-02-11T15:17:56;37.42;;;19.85;;
29890;SDS011;16759;49.540;8.642;2023-02-11T15:20:25;31.20;;;16.80;;
29890;SDS011;16759;49.540;8.642;2023-02-11T15:22:54;34.67;;;18.58;;
29890;SDS011;16759;49.540;8.642;2023-02-11T15:25:23;33.97;;;17.88;;
29890;SDS011;16759;49.540;8.642;2023-02-11T15:27:49;40.13;;;18.80;;
29890;SDS011;16759;49.540;8.642;2023-02-11T15:30:22;41.92;;;20.65;;
29890;SDS011;16759;49.540;8.642;2023-02-11T15:32:49;36.38;;;19.02;;
29890;SDS011;16759;49.540;8.642;2023-02-11T15:35:37;41.90;;;20.08;;
29890;SDS011;16759;49.540;8.642;2023-02-11T15:38:06;39.50;;;20.05;;
29890;SDS011;16759;49.540;8.642;2023-02-11T15:40:35;36.10;;;19.38;;
29890;SDS011;16759;49.540;8.642;2023-02-11T15:50:36;37.22;;;19.63;;
29890;SDS011;16759;49.540;8.642;2023-02-11T15:53:15;36.33;;;19.38;;
29890;SDS011;16759;49.540;8.642;2023-02-11T15:56:10;37.08;;;20.15;;
29890;SDS011;16759;49.540;8.642;2023-02-11T15:58:40;41.25;;;20.95;;
29890;SDS011;16759;49.540;8.642;2023-02-11T16:01:08;37.22;;;19.60;;
29890;SDS011;16759;49.540;8.642;2023-02-11T16:03:35;35.83;;;20.35;;
29890;SDS011;16759;49.540;8.642;2023-02-11T16:06:13;42.97;;;21.88;;
29890;SDS011;16759;49.540;8.642;2023-02-11T16:08:42;43.00;;;20.05;;
29890;SDS011;16759;49.540;8.642;2023-02-11T16:11:26;39.70;;;19.90;;
29890;SDS011;16759;49.540;8.642;2023-02-11T16:13:55;41.17;;;21.48;;
29890;SDS011;16759;49.540;8.642;2023-02-11T16:16:26;40.20;;;22.17;;
29890;SDS011;16759;49.540;8.642;2023-02-11T16:18:54;43.10;;;21.27;;
29890;SDS011;16759;49.540;8.642;2023-02-11T16:21:24;41.28;;;22.75;;
29890;SDS011;16759;49.540;8.642;2023-02-11T16:23:56;40.45;;;22.13;;
29890;SDS011;16759;49.540;8.642;2023-02-11T16:26:38;41.25;;;22.08;;
29890;SDS011;16759;49.540;8.642;2023-02-11T16:29:11;43.95;;;22.63;;
29890;SDS011;16759;49.540;8.642;2023-02-11T16:31:43;42.10;;;21.42;;
29890;SDS011;16759;49.540;8.642;2023-02-11T16:36:46;41.67;;;22.92;;
29890;SDS011;16759;49.540;8.642;2023-02-11T16:39:13;40.13;;;20.80;;
29890;SDS011;16759;49.540;8.642;2023-02-11T16:41:40;44.35;;;22.73;;
29890;SDS011;16759;49.540;8.642;2023-02-11T16:44:06;47.05;;;22.88;;
29890;SDS011;16759;49.540;8.642;2023-02-11T16:46:32;44.67;;;21.77;;
29890;SDS011;16759;49.540;8.642;2023-02-11T16:48:58;45.85;;;22.92;;
29890;SDS011;16759;49.540;8.642;2023-02-11T16:51:32;45.75;;;22.02;;
29890;SDS011;16759;49.540;8.642;2023-02-11T16:53:57;41.90;;;20.67;;
29890;SDS011;16759;49.540;8.642;2023-02-11T16:56:23;50.33;;;22.60;;
29890;SDS011;16759;49.540;8.642;2023-02-11T16:58:51;43.88;;;21.70;;
29890;SDS011;16759;49.540;8.642;2023-02-11T17:01:16;40.88;;;21.92;;
29890;SDS011;16759;49.540;8.642;2023-02-11T17:03:42;40.17;;;21.80;;
29890;SDS011;16759;49.540;8.642;2023-02-11T17:06:10;45.05;;;21.73;;
29890;SDS011;16759;49.540;8.642;2023-02-11T17:08:39;46.97;;;24.08;;
29890;SDS011;16759;49.540;8.642;2023-02-11T17:11:05;42.42;;;21.73;;
29890;SDS011;16759;49.540;8.642;2023-02-11T17:13:31;42.30;;;22.38;;
29890;SDS011;16759;49.540;8.642;2023-02-11T17:15:57;47.08;;;23.70;;
29890;SDS011;16759;49.540;8.642;2023-02-11T17:18:25;48.92;;;23.02;;
29890;SDS011;16759;49.540;8.642;2023-02-11T17:20:50;40.92;;;23.23;;
29890;SDS011;16759;49.540;8.642;2023-02-11T17:23:16;43.97;;;23.60;;
29890;SDS011;16759;49.540;8.642;2023-02-11T17:25:42;40.60;;;22.73;;
29890;SDS011;16759;49.540;8.642;2023-02-11T17:28:08;43.40;;;23.58;;
29890;SDS011;16759;49.540;8.642;2023-02-11T17:30:37;50.38;;;23.08;;
29890;SDS011;16759;49.540;8.642;2023-02-11T17:33:03;44.90;;;23.77;;
29890;SDS011;16759;49.540;8.642;2023-02-11T17:35:29;47.60;;;24.50;;
29890;SDS011;16759;49.540;8.642;2023-02-11T17:37:54;50.85;;;24.77;;
29890;SDS011;16759;49.540;8.642;2023-02-11T17:40:22;50.60;;;25.25;;
29890;SDS011;16759;49.540;8.642;2023-02-11T17:42:47;48.10;;;23.33;;
29890;SDS011;16759;49.540;8.642;2023-02-11T17:45:16;52.13;;;25.23;;
29890;SDS011;16759;49.540;8.642;2023-02-11T17:47:42;52.17;;;25.00;;
29890;SDS011;16759;49.540;8.642;2023-02-11T17:50:07;50.75;;;25.85;;
29890;SDS011;16759;49.540;8.642;2023-02-11T17:52:33;43.30;;;24.30;;
29890;SDS011;16759;49.540;8.642;2023-02-11T17:55:01;52.63;;;26.33;;
29890;SDS011;16759;49.540;8.642;2023-02-11T17:57:28;47.90;;;26.70;;
29890;SDS011;16759;49.540;8.642;2023-02-11T17:59:53;49.08;;;26.85;;
29890;SDS011;16759;49.540;8.642;2023-02-11T18:02:19;51.42;;;27.52;;
29890;SDS011;16759;49.540;8.642;2023-02-11T18:04:44;52.50;;;27.67;;
29890;SDS011;16759;49.540;8.642;2023-02-11T18:07:10;56.08;;;29.58;;
29890;SDS011;16759;49.540;8.642;2023-02-11T18:09:36;61.00;;;29.10;;
29890;SDS011;16759;49.540;8.642;2023-02-11T18:12:03;56.33;;;28.15;;
29890;SDS011;16759;49.540;8.642;2023-02-11T18:14:29;50.90;;;27.70;;
29890;SDS011;16759;49.540;8.642;2023-02-11T18:16:55;57.22;;;27.23;;
29890;SDS011;16759;49.540;8.642;2023-02-11T18:19:21;53.33;;;26.35;;
29890;SDS011;16759;49.540;8.642;2023-02-11T18:21:49;52.13;;;27.70;;
29890;SDS011;16759;49.540;8.642;2023-02-11T18:24:15;51.97;;;29.17;;
29890;SDS011;16759;49.540;8.642;2023-02-11T18:26:41;55.72;;;26.27;;
29890;SDS011;16759;49.540;8.642;2023-02-11T18:29:07;51.05;;;25.65;;
29890;SDS011;16759;49.540;8.642;2023-02-11T18:31:33;52.35;;;27.83;;
29890;SDS011;16759;49.540;8.642;2023-02-11T18:34:02;54.42;;;27.77;;
29890;SDS011;16759;49.540;8.642;2023-02-11T18:36:29;48.30;;;25.55;;
29890;SDS011;16759;49.540;8.642;2023-02-11T18:38:55;52.35;;;27.90;;
29890;SDS011;16759;49.540;8.642;2023-02-11T18:41:22;50.10;;;26.98;;
29890;SDS011;16759;49.540;8.642;2023-02-11T18:43:47;46.85;;;24.60;;
29890;SDS011;16759;49.540;8.642;2023-02-11T18:46:13;52.53;;;27.27;;
29890;SDS011;16759;49.540;8.642;2023-02-11T18:48:41;50.40;;;25.92;;
29890;SDS011;16759;49.540;8.642;2023-02-11T18:51:09;47.38;;;24.90;;
29890;SDS011;16759;49.540;8.642;2023-02-11T18:53:37;51.83;;;26.77;;
29890;SDS011;16759;49.540;8.642;2023-02-11T18:56:07;46.08;;;24.35;;
29890;SDS011;16759;49.540;8.642;2023-02-11T18:58:38;52.60;;;25.63;;
29890;SDS011;16759;49.540;8.642;2023-02-11T19:01:11;52.10;;;25.58;;
29890;SDS011;16759;49.540;8.642;2023-02-11T19:03:42;52.13;;;27.67;;
29890;SDS011;16759;49.540;8.642;2023-02-11T19:06:15;48.42;;;25.92;;
29890;SDS011;16759;49.540;8.642;2023-02-11T19:08:44;53.88;;;27.60;;
29890;SDS011;16759;49.540;8.642;2023-02-11T19:11:09;51.60;;;27.08;;
29890;SDS011;16759;49.540;8.642;2023-02-11T19:13:35;51.05;;;27.23;;
29890;SDS011;16759;49.540;8.642;2023-02-11T19:16:07;53.08;;;26.38;;
29890;SDS011;16759;49.540;8.642;2023-02-11T19:18:36;54.33;;;26.25;;
29890;SDS011;16759;49.540;8.642;2023-02-11T19:21:06;47.08;;;26.27;;
29890;SDS011;16759;49.540;8.642;2023-02-11T19:23:33;48.50;;;25.85;;
29890;SDS011;16759;49.540;8.642;2023-02-11T19:26:00;44.65;;;25.58;;
29890;SDS011;16759;49.540;8.642;2023-02-11T19:28:28;46.28;;;25.65;;
29890;SDS011;16759;49.540;8.642;2023-02-11T19:30:55;44.75;;;25.55;;
29890;SDS011;16759;49.540;8.642;2023-02-11T19:33:20;42.88;;;24.33;;
29890;SDS011;16759;49.540;8.642;2023-02-11T19:35:48;48.47;;;24.95;;
29890;SDS011;16759;49.540;8.642;2023-02-11T19:38:16;48.45;;;25.95;;
29890;SDS011;16759;49.540;8.642;2023-02-11T19:40:43;50.88;;;26.23;;
29890;SDS011;16759;49.540;8.642;2023-02-11T19:43:08;49.38;;;25.98;;
29890;SDS011;16759;49.540;8.642;2023-02-11T19:45:35;46.78;;;26.63;;
29890;SDS011;16759;49.540;8.642;2023-02-11T19:48:01;53.72;;;27.33;;
29890;SDS011;16759;49.540;8.642;2023-02-11T19:50:30;52.40;;;26.20;;
29890;SDS011;16759;49.540;8.642;2023-02-11T19:52:55;51.15;;;28.98;;
29890;SDS011;16759;49.540;8.642;2023-02-11T19:55:26;48.80;;;26.67;;
29890;SDS011;16759;49.540;8.642;2023-02-11T19:57:54;47.38;;;25.23;;
29890;SDS011;16759;49.540;8.642;2023-02-11T20:00:19;59.88;;;27.63;;
29890;SDS011;16759;49.540;8.642;2023-02-11T20:02:45;58.15;;;27.98;;
29890;SDS011;16759;49.540;8.642;2023-02-11T20:05:11;55.28;;;27.65;;
29890;SDS011;16759;49.540;8.642;2023-02-11T20:07:36;49.70;;;26.45;;
29890;SDS011;16759;49.540;8.642;2023-02-11T20:10:02;49.42;;;27.05;;
29890;SDS011;16759;49.540;8.642;2023-02-11T20:12:30;54.63;;;27.90;;
29890;SDS011;16759;49.540;8.642;2023-02-11T20:14:56;50.80;;;26.45;;
29890;SDS011;16759;49.540;8.642;2023-02-11T20:17:21;49.47;;;26.40;;
29890;SDS011;16759;49.540;8.642;2023-02-11T20:19:47;56.05;;;29.42;;
29890;SDS011;16759;49.540;8.642;2023-02-11T20:22:14;52.10;;;28.60;;
29890;SDS011;16759;49.540;8.642;2023-02-11T20:24:40;51.55;;;26.73;;
29890;SDS011;16759;49.540;8.642;2023-02-11T20:27:06;49.28;;;27.50;;
29890;SDS011;16759;49.540;8.642;2023-02-11T20:29:32;49.60;;;27.23;;
29890;SDS011;16759;49.540;8.642;2023-02-11T20:31:57;56.80;;;28.48;;
29890;SDS011;16759;49.540;8.642;2023-02-11T20:34:27;54.83;;;27.95;;
29890;SDS011;16759;49.540;8.642;2023-02-11T20:36:53;52.03;;;26.70;;
29890;SDS011;16759;49.540;8.642;2023-02-11T20:39:20;58.38;;;28.55;;
29890;SDS011;16759;49.540;8.642;2023-02-11T20:41:47;53.03;;;27.80;;
29890;SDS011;16759;49.540;8.642;2023-02-11T20:44:13;50.95;;;26.83;;
29890;SDS011;16759;49.540;8.642;2023-02-11T20:46:43;50.60;;;27.58;;
29890;SDS011;16759;49.540;8.642;2023-02-11T20:49:13;53.35;;;26.83;;
29890;SDS011;16759;49.540;8.642;2023-02-11T20:51:40;55.90;;;28.75;;
29890;SDS011;16759;49.540;8.642;2023-02-11T20:54:09;52.72;;;26.67;;
29890;SDS011;16759;49.540;8.642;2023-02-11T20:56:39;52.70;;;27.83;;
29890;SDS011;16759;49.540;8.642;2023-02-11T20:59:05;52.88;;;27.63;;
29890;SDS011;16759;49.540;8.642;2023-02-11T21:01:32;51.75;;;28.10;;
29890;SDS011;16759;49.540;8.642;2023-02-11T21:04:01;52.28;;;28.58;;
29890;SDS011;16759;49.540;8.642;2023-02-11T21:06:33;51.97;;;28.27;;
29890;SDS011;16759;49.540;8.642;2023-02-11T21:09:00;52.33;;;27.83;;
29890;SDS011;16759;49.540;8.642;2023-02-11T21:11:28;48.28;;;27.00;;
29890;SDS011;16759;49.540;8.642;2023-02-11T21:13:55;47.05;;;25.88;;
29890;SDS011;16759;49.540;8.642;2023-02-11T21:16:23;45.70;;;27.00;;
29890;SDS011;16759;49.540;8.642;2023-02-11T21:18:51;54.70;;;27.15;;
29890;SDS011;16759;49.540;8.642;2023-02-11T21:21:17;55.38;;;27.90;;
29890;SDS011;16759;49.540;8.642;2023-02-11T21:23:44;48.72;;;27.90;;
29890;SDS011;16759;49.540;8.642;2023-02-11T21:26:10;54.28;;;27.92;;
29890;SDS011;16759;49.540;8.642;2023-02-11T21:28:36;49.35;;;26.20;;
29890;SDS011;16759;49.540;8.642;2023-02-11T21:31:04;54.08;;;27.38;;
29890;SDS011;16759;49.540;8.642;2023-02-11T21:33:30;51.17;;;25.90;;
29890;SDS011;16759;49.540;8.642;2023-02-11T21:35:58;48.08;;;25.33;;
29890;SDS011;16759;49.540;8.642;2023-02-11T21:38:28;46.85;;;25.70;;
29890;SDS011;16759;49.540;8.642;2023-02-11T21:41:03;51.78;;;27.98;;
29890;SDS011;16759;49.540;8.642;2023-02-11T21:43:29;50.63;;;27.40;;
29890;SDS011;16759;49.540;8.642;2023-02-11T21:45:55;54.63;;;28.45;;
29890;SDS011;16759;49.540;8.642;2023-02-11T21:48:21;53.35;;;27.98;;
29890;SDS011;16759;49.540;8.642;2023-02-11T21:50:47;46.75;;;26.90;;
29890;SDS011;16759;49.540;8.642;2023-02-11T21:53:13;49.70;;;28.02;;
29890;SDS011;16759;49.540;8.642;2023-02-11T21:55:39;54.28;;;28.60;;
29890;SDS011;16759;49.540;8.642;2023-02-11T21:58:07;52.92;;;27.23;;
29890;SDS011;16759;49.540;8.642;2023-02-11T22:00:36;57.03;;;29.00;;
29890;SDS011;16759;49.540;8.642;2023-02-11T22:03:04;50.63;;;27.25;;
29890;SDS011;16759;49.540;8.642;2023-02-11T22:05:30;49.78;;;27.52;;
29890;SDS011;16759;49.540;8.642;2023-02-11T22:07:55;56.70;;;26.83;;
29890;SDS011;16759;49.540;8.642;2023-02-11T22:10:23;52.35;;;27.65;;
29890;SDS011;16759;49.540;8.642;2023-02-11T22:12:51;46.28;;;24.63;;
29890;SDS011;16759;49.540;8.642;2023-02-11T22:15:21;54.55;;;27.67;;
29890;SDS011;16759;49.540;8.642;2023-02-11T22:17:47;53.40;;;27.90;;
29890;SDS011;16759;49.540;8.642;2023-02-11T22:20:12;50.65;;;24.98;;
29890;SDS011;16759;49.540;8.642;2023-02-11T22:22:38;44.90;;;24.20;;
29890;SDS011;16759;49.540;8.642;2023-02-11T22:25:03;48.10;;;25.98;;
29890;SDS011;16759;49.540;8.642;2023-02-11T22:27:32;47.53;;;25.70;;
29890;SDS011;16759;49.540;8.642;2023-02-11T22:29:57;49.60;;;25.00;;
29890;SDS011;16759;49.540;8.642;2023-02-11T22:32:23;48.33;;;24.63;;
29890;SDS011;16759;49.540;8.642;2023-02-11T22:34:51;47.55;;;23.67;;
29890;SDS011;16759;49.540;8.642;2023-02-11T22:37:16;43.53;;;23.20;;
29890;SDS011;16759;49.540;8.642;2023-02-11T22:39:42;45.08;;;23.58;;
29890;SDS011;16759;49.540;8.642;2023-02-11T22:42:10;45.03;;;24.45;;